createdAt,value
2018-09-03T00:00:23.190Z,100183.97
2018-09-03T00:02:50.874Z,100197.58
2018-09-03T00:05:18.535Z,100208.36
2018-09-03T00:07:46.374Z,100207.71
2018-09-03T00:10:14.036Z,100204.43
2018-09-03T00:12:41.730Z,100191.83
2018-09-03T00:15:09.428Z,100187.80
2018-09-03T00:17:37.076Z,100186.33
2018-09-03T00:20:04.773Z,100185.00
2018-09-03T00:22:32.423Z,100177.52
2018-09-03T00:25:00.114Z,100177.91
2018-09-03T00:27:27.739Z,100178.95
2018-09-03T00:29:55.390Z,100164.48
2018-09-03T00:32:28.842Z,100160.50
2018-09-03T00:35:02.415Z,100158.83
2018-09-03T00:37:35.930Z,100162.48
2018-09-03T00:40:09.443Z,100166.11
2018-09-03T00:42:42.727Z,100177.67
2018-09-03T00:45:16.256Z,100176.78
2018-09-03T00:47:43.878Z,100174.28
2018-09-03T00:50:11.657Z,100176.83
2018-09-03T00:52:39.384Z,100182.78
2018-09-03T00:55:07.090Z,100190.30
2018-09-03T00:57:34.750Z,100186.33
2018-09-03T01:00:02.485Z,100196.02
2018-09-03T01:02:30.261Z,100194.84
2018-09-03T01:04:57.891Z,100195.52
2018-09-03T01:07:25.678Z,100190.84
2018-09-03T01:09:53.317Z,100195.14
2018-09-03T01:12:21.092Z,100205.45
2018-09-03T01:14:48.832Z,100206.24
2018-09-03T01:17:16.502Z,100206.92
2018-09-03T01:19:44.196Z,100215.24
2018-09-03T01:22:11.894Z,100205.90
2018-09-03T01:24:39.580Z,100205.30
2018-09-03T01:27:07.230Z,100208.06
2018-09-03T01:29:34.921Z,100208.20
2018-09-03T01:32:02.746Z,100208.27
2018-09-03T01:34:30.356Z,100201.42
2018-09-03T01:36:58.013Z,100202.66
2018-09-03T01:39:25.677Z,100197.88
2018-09-03T01:41:53.332Z,100197.01
2018-09-03T01:44:21.057Z,100194.34
2018-09-03T01:46:48.726Z,100185.89
2018-09-03T01:49:16.453Z,100177.23
2018-09-03T01:51:44.125Z,100169.36
2018-09-03T01:54:11.790Z,100161.59
2018-09-03T01:56:39.396Z,100143.30
2018-09-03T01:59:07.028Z,100153.58
2018-09-03T02:01:34.592Z,100149.30
2018-09-03T02:04:02.342Z,100135.30
2018-09-03T02:06:30.029Z,100134.45
2018-09-03T02:08:57.756Z,100142.23
2018-09-03T02:11:25.390Z,100143.20
2018-09-03T02:13:53.028Z,100149.30
2018-09-03T02:16:20.761Z,100139.87
2018-09-03T02:18:48.344Z,100143.05
2018-09-03T02:21:16.020Z,100143.65
2018-09-03T02:23:43.656Z,100145.58
2018-09-03T02:26:11.302Z,100143.61
2018-09-03T02:28:38.999Z,100134.16
2018-09-03T02:31:06.723Z,100132.20
2018-09-03T02:33:34.419Z,100116.72
2018-09-03T02:36:02.098Z,100141.64
2018-09-03T02:38:29.837Z,100141.19
2018-09-03T02:40:57.549Z,100146.73
2018-09-03T02:43:25.251Z,100142.11
2018-09-03T02:45:52.910Z,100143.73
2018-09-03T02:48:21.109Z,100137.06
2018-09-03T02:50:48.825Z,100129.28
2018-09-03T02:53:16.490Z,100131.78
2018-09-03T02:55:44.198Z,100131.45
2018-09-03T02:58:11.849Z,100135.09
2018-09-03T03:00:39.537Z,100129.78
2018-09-03T03:03:07.189Z,100121.50
2018-09-03T03:05:34.806Z,100108.91
2018-09-03T03:08:02.511Z,100107.55
2018-09-03T03:10:30.233Z,100098.09
2018-09-03T03:12:57.910Z,100103.12
2018-09-03T03:15:25.510Z,100100.63
2018-09-03T03:17:53.188Z,100097.01
2018-09-03T03:20:20.787Z,100093.48
2018-09-03T03:22:48.450Z,100088.50
2018-09-03T03:25:16.144Z,100093.96
2018-09-03T03:27:43.721Z,100094.80
2018-09-03T03:30:11.539Z,100095.14
2018-09-03T03:32:39.573Z,100093.95
2018-09-03T03:35:08.714Z,100093.12
2018-09-03T03:37:36.576Z,100097.77
2018-09-03T03:40:04.372Z,100093.78
2018-09-03T03:42:31.996Z,100101.56
2018-09-03T03:44:59.897Z,100105.05
2018-09-03T03:47:27.722Z,100100.42
2018-09-03T03:49:55.818Z,100092.64
2018-09-03T03:52:23.540Z,100093.93
2018-09-03T03:54:51.254Z,100091.09
2018-09-03T03:57:18.886Z,100089.98
2018-09-03T03:59:46.591Z,100082.50
2018-09-03T04:02:14.244Z,100076.70
2018-09-03T04:04:41.885Z,100077.89
2018-09-03T04:07:09.576Z,100073.23
2018-09-03T04:09:37.213Z,100067.87
2018-09-03T04:12:04.916Z,100072.02
2018-09-03T04:14:32.557Z,100070.99
2018-09-03T04:17:00.293Z,100068.00
2018-09-03T04:19:27.969Z,100083.92
2018-09-03T04:21:55.669Z,100084.98
2018-09-03T04:24:23.305Z,100083.92
2018-09-03T04:26:51.018Z,100081.27
2018-09-03T04:29:18.711Z,100079.30
2018-09-03T04:31:46.505Z,100083.68
2018-09-03T04:34:14.135Z,100079.69
2018-09-03T04:36:41.795Z,100077.21
2018-09-03T04:39:09.590Z,100078.39
2018-09-03T04:41:37.597Z,100070.41
2018-09-03T04:44:05.456Z,100072.70
2018-09-03T04:46:33.517Z,100076.88
2018-09-03T04:49:01.505Z,100077.69
2018-09-03T04:51:29.445Z,100080.03
2018-09-03T04:53:57.171Z,100076.52
2018-09-03T04:56:24.851Z,100072.35
2018-09-03T04:58:52.631Z,100073.16
2018-09-03T05:01:20.365Z,100074.54
2018-09-03T05:03:48.093Z,100080.03
2018-09-03T05:06:15.741Z,100076.36
2018-09-03T05:08:43.519Z,100077.39
2018-09-03T05:11:11.179Z,100079.92
2018-09-03T05:13:38.873Z,100076.38
2018-09-03T05:16:06.554Z,100083.25
2018-09-03T05:18:34.205Z,100093.19
2018-09-03T05:21:01.810Z,100086.91
2018-09-03T05:23:29.416Z,100089.23
2018-09-03T05:25:57.118Z,100082.59
2018-09-03T05:28:24.833Z,100080.75
2018-09-03T05:30:52.568Z,100079.09
2018-09-03T05:33:20.312Z,100080.92
2018-09-03T05:35:48.008Z,100080.41
2018-09-03T05:38:15.606Z,100077.61
2018-09-03T05:40:43.233Z,100079.94
2018-09-03T05:43:11.085Z,100086.73
2018-09-03T05:45:38.750Z,100084.07
2018-09-03T05:48:06.483Z,100084.91
2018-09-03T05:50:34.175Z,100092.23
2018-09-03T05:53:01.942Z,100088.41
2018-09-03T05:55:29.585Z,100088.55
2018-09-03T05:57:57.254Z,100095.04
2018-09-03T06:00:25.045Z,100086.08
2018-09-03T06:02:52.725Z,100089.73
2018-09-03T06:05:20.436Z,100086.39
2018-09-03T06:07:48.099Z,100096.20
2018-09-03T06:10:15.833Z,100095.38
2018-09-03T06:12:43.522Z,100096.69
2018-09-03T06:15:11.154Z,100102.50
2018-09-03T06:17:38.777Z,100103.83
2018-09-03T06:20:06.440Z,100096.34
2018-09-03T06:22:34.079Z,100100.93
2018-09-03T06:25:02.187Z,100096.56
2018-09-03T06:27:30.101Z,100102.83
2018-09-03T06:29:57.779Z,100093.70
2018-09-03T06:32:25.498Z,100101.59
2018-09-03T06:34:53.207Z,100099.59
2018-09-03T06:37:20.898Z,100098.89
2018-09-03T06:39:48.625Z,100100.70
2018-09-03T06:42:16.314Z,100100.17
2018-09-03T06:44:43.958Z,100106.83
2018-09-03T06:47:11.678Z,100110.12
2018-09-03T06:49:39.448Z,100109.38
2018-09-03T06:52:07.076Z,100113.41
2018-09-03T06:54:34.731Z,100112.59
2018-09-03T06:57:02.340Z,100113.94
2018-09-03T06:59:29.960Z,100114.13
2018-09-03T07:01:57.589Z,100114.23
2018-09-03T07:04:25.252Z,100115.16
2018-09-03T07:06:52.909Z,100109.24
2018-09-03T07:09:20.507Z,100106.55
2018-09-03T07:11:48.167Z,100107.36
2018-09-03T07:14:15.992Z,100103.22
2018-09-03T07:16:43.649Z,100096.58
2018-09-03T07:19:11.258Z,100094.75
2018-09-03T07:21:38.913Z,100097.08
2018-09-03T07:24:06.639Z,100088.30
2018-09-03T07:26:34.562Z,100102.06
2018-09-03T07:29:02.216Z,100112.72
2018-09-03T07:31:29.955Z,100105.80
2018-09-03T07:33:57.713Z,100109.80
2018-09-03T07:36:25.372Z,100107.36
2018-09-03T07:38:52.960Z,100107.64
2018-09-03T07:41:20.592Z,100097.95
2018-09-03T07:43:48.338Z,100107.47
2018-09-03T07:46:16.064Z,100108.92
2018-09-03T07:48:43.766Z,100105.80
2018-09-03T07:51:11.581Z,100093.59
2018-09-03T07:53:39.290Z,100089.88
2018-09-03T07:56:06.901Z,100081.88
2018-09-03T07:58:35.462Z,100094.28
2018-09-03T08:01:03.115Z,100091.03
2018-09-03T08:03:30.799Z,100092.63
2018-09-03T08:05:58.487Z,100095.19
2018-09-03T08:08:26.166Z,100086.20
2018-09-03T08:10:53.819Z,100084.64
2018-09-03T08:13:27.149Z,100076.87
2018-09-03T08:15:54.878Z,100083.39
2018-09-03T08:18:22.561Z,100074.44
2018-09-03T08:20:50.333Z,100077.81
2018-09-03T08:23:17.991Z,100075.86
2018-09-03T08:25:45.622Z,100067.98
2018-09-03T08:28:13.338Z,100070.02
2018-09-03T08:30:41.071Z,100077.39
2018-09-03T08:33:08.694Z,100078.28
2018-09-03T08:35:36.432Z,100077.26
2018-09-03T08:38:04.365Z,100074.77
2018-09-03T08:40:32.051Z,100075.52
2018-09-03T08:42:59.693Z,100081.89
2018-09-03T08:45:27.365Z,100085.73
2018-09-03T08:47:55.071Z,100082.75
2018-09-03T08:50:22.747Z,100082.44
2018-09-03T08:52:50.398Z,100086.85
2018-09-03T08:55:18.059Z,100088.77
2018-09-03T08:57:45.669Z,100088.28
2018-09-03T09:00:13.342Z,100082.53
2018-09-03T09:02:41.008Z,100085.83
2018-09-03T09:05:08.650Z,100084.69
2018-09-03T09:07:36.297Z,100079.65
2018-09-03T09:10:03.994Z,100076.27
2018-09-03T09:12:31.630Z,100067.04
2018-09-03T09:14:59.354Z,100077.96
2018-09-03T09:17:27.085Z,100067.14
2018-09-03T09:19:54.666Z,100066.56
2018-09-03T09:22:22.309Z,100065.03
2018-09-03T09:24:50.044Z,100058.02
2018-09-03T09:27:17.673Z,100054.04
2018-09-03T09:29:45.274Z,100051.75
2018-09-03T09:32:12.965Z,100050.81
2018-09-03T09:34:40.698Z,100052.68
2018-09-03T09:37:08.311Z,100046.09
2018-09-03T09:39:35.937Z,100039.30
2018-09-03T09:42:03.668Z,100039.59
2018-09-03T09:44:31.450Z,100043.25
2018-09-03T09:46:59.097Z,100042.20
2018-09-03T09:49:26.890Z,100043.25
2018-09-03T09:51:54.546Z,100032.46
2018-09-03T09:54:22.208Z,100031.27
2018-09-03T09:56:49.976Z,100029.02
2018-09-03T09:59:17.688Z,100024.67
2018-09-03T10:01:45.410Z,100022.86
2018-09-03T10:04:13.143Z,100023.23
2018-09-03T10:06:40.801Z,100015.92
2018-09-03T10:09:08.502Z,100009.95
2018-09-03T10:11:36.119Z,100000.47
2018-09-03T10:14:03.861Z,99999.98
2018-09-03T10:16:31.485Z,99998.91
2018-09-03T10:18:59.195Z,100001.17
2018-09-03T10:21:26.818Z,99999.50
2018-09-03T10:23:54.477Z,99999.87
2018-09-03T10:26:22.265Z,99997.28
2018-09-03T10:28:49.855Z,99988.09
2018-09-03T10:31:17.600Z,99983.89
2018-09-03T10:33:45.285Z,99980.14
2018-09-03T10:36:12.910Z,99982.08
2018-09-03T10:38:40.529Z,99990.62
2018-09-03T10:41:08.189Z,99979.52
2018-09-03T10:43:35.863Z,99980.55
2018-09-03T10:46:03.499Z,99984.81
2018-09-03T10:48:31.114Z,99986.17
2018-09-03T10:50:59.231Z,99987.84
2018-09-03T10:53:27.055Z,99984.32
2018-09-03T10:55:54.689Z,99974.80
2018-09-03T10:58:22.423Z,99973.56
2018-09-03T11:00:50.111Z,99967.56
2018-09-03T11:03:17.805Z,99970.16
2018-09-03T11:05:45.480Z,99971.19
2018-09-03T11:08:13.088Z,99970.99
2018-09-03T11:10:40.754Z,99971.78
2018-09-03T11:13:08.424Z,99969.50
2018-09-03T11:15:36.156Z,99972.30
2018-09-03T11:18:03.837Z,99979.53
2018-09-03T11:20:31.649Z,99969.98
2018-09-03T11:22:59.402Z,99976.70
2018-09-03T11:25:29.096Z,99962.09
2018-09-03T11:27:56.783Z,99965.33
2018-09-03T11:30:25.097Z,99964.86
2018-09-03T11:33:03.056Z,99962.42
2018-09-03T11:35:30.746Z,99953.13
2018-09-03T11:37:58.404Z,99945.91
2018-09-03T11:40:26.389Z,99935.71
2018-09-03T11:42:54.085Z,99940.69
2018-09-03T11:45:22.661Z,99939.92
2018-09-03T11:47:50.402Z,99938.10
2018-09-03T11:50:18.747Z,99936.83
2018-09-03T11:52:46.360Z,99941.19
2018-09-03T11:55:14.496Z,99942.44
2018-09-03T11:57:42.377Z,99933.16
2018-09-03T12:00:13.541Z,99922.22
2018-09-03T12:02:41.233Z,99933.70
2018-09-03T12:05:09.550Z,99932.16
2018-09-03T12:07:37.227Z,99927.31
2018-09-03T12:10:05.352Z,99928.23
2018-09-03T12:12:33.132Z,99923.77
2018-09-03T12:15:05.941Z,99927.39
2018-09-03T12:17:33.564Z,99925.32
2018-09-03T12:20:01.214Z,99923.79
2018-09-03T12:22:29.059Z,99919.74
2018-09-03T12:24:56.681Z,99921.05
2018-09-03T12:27:24.302Z,99919.95
2018-09-03T12:29:51.964Z,99923.23
2018-09-03T12:32:19.631Z,99926.09
2018-09-03T12:34:47.292Z,99924.99
2018-09-03T12:37:15.026Z,99923.52
2018-09-03T12:39:42.712Z,99921.92
2018-09-03T12:42:10.554Z,99913.83
2018-09-03T12:44:38.240Z,99918.16
2018-09-03T12:47:06.070Z,99919.61
2018-09-03T12:49:33.887Z,99913.81
2018-09-03T12:52:01.627Z,99916.93
2018-09-03T12:54:29.322Z,99915.03
2018-09-03T12:56:57.040Z,99914.34
2018-09-03T12:59:24.670Z,99920.62
2018-09-03T13:01:52.297Z,99912.34
2018-09-03T13:04:19.970Z,99914.10
2018-09-03T13:06:48.001Z,99920.41
2018-09-03T13:09:16.615Z,99926.59
2018-09-03T13:11:44.311Z,99918.97
2018-09-03T13:14:12.997Z,99919.92
2018-09-03T13:16:40.771Z,99917.81
2018-09-03T13:19:08.487Z,99914.84
2018-09-03T13:21:36.136Z,99911.34
2018-09-03T13:24:03.811Z,99916.75
2018-09-03T13:26:31.411Z,99915.94
2018-09-03T13:28:59.103Z,99915.45
2018-09-03T13:31:26.787Z,99919.55
2018-09-03T13:33:54.464Z,99921.27
2018-09-03T13:36:22.130Z,99915.89
2018-09-03T13:38:49.768Z,99920.05
2018-09-03T13:41:17.426Z,99921.80
2018-09-03T13:43:45.134Z,99918.41
2018-09-03T13:46:12.749Z,99921.62
2018-09-03T13:48:40.340Z,99923.39
2018-09-03T13:51:08.002Z,99924.53
2018-09-03T13:53:35.666Z,99911.95
2018-09-03T13:56:03.320Z,99920.49
2018-09-03T13:58:30.947Z,99917.27
2018-09-03T14:00:58.604Z,99908.09
2018-09-03T14:03:26.289Z,99896.42
2018-09-03T14:05:54.019Z,99886.86
2018-09-03T14:08:21.649Z,99887.93
2018-09-03T14:10:49.697Z,99881.27
2018-09-03T14:13:17.476Z,99879.29
2018-09-03T14:15:45.231Z,99882.45
2018-09-03T14:18:12.945Z,99882.09
2018-09-03T14:20:40.760Z,99875.59
2018-09-03T14:23:08.397Z,99875.64
2018-09-03T14:25:36.033Z,99875.55
2018-09-03T14:28:03.757Z,99871.47
2018-09-03T14:30:31.458Z,99877.94
2018-09-03T14:32:59.112Z,99872.14
2018-09-03T14:35:26.851Z,99874.20
2018-09-03T14:37:54.569Z,99860.70
2018-09-03T14:40:22.306Z,99867.61
2018-09-03T14:42:51.780Z,99863.86
2018-09-03T14:45:19.502Z,99873.67
2018-09-03T14:47:47.247Z,99865.59
2018-09-03T14:50:14.923Z,99863.08
2018-09-03T14:52:42.613Z,99869.58
2018-09-03T14:55:10.255Z,99866.63
2018-09-03T14:57:37.955Z,99859.80
2018-09-03T15:00:06.927Z,99868.53
2018-09-03T15:02:34.709Z,99867.56
2018-09-03T15:05:02.407Z,99876.53
2018-09-03T15:07:30.229Z,99867.78
2018-09-03T15:09:57.826Z,99869.76
2018-09-03T15:12:25.440Z,99867.74
2018-09-03T15:14:53.206Z,99872.84
2018-09-03T15:17:20.843Z,99871.75
2018-09-03T15:19:48.587Z,99866.19
2018-09-03T15:22:16.705Z,99873.06
2018-09-03T15:24:44.447Z,99867.26
2018-09-03T15:27:13.104Z,99873.67
2018-09-03T15:29:40.779Z,99871.75
2018-09-03T15:32:08.429Z,99865.30
2018-09-03T15:34:36.072Z,99863.86
2018-09-03T15:37:03.747Z,99870.10
2018-09-03T15:39:31.453Z,99868.78
2018-09-03T15:41:59.132Z,99865.29
2018-09-03T15:44:26.781Z,99863.05
2018-09-03T15:46:54.648Z,99861.70
2018-09-03T15:49:22.324Z,99866.36
2018-09-03T15:51:49.966Z,99859.98
2018-09-03T15:54:17.595Z,99857.42
2018-09-03T15:56:45.268Z,99861.27
2018-09-03T15:59:13.000Z,99860.30
2018-09-03T16:01:40.716Z,99861.28
2018-09-03T16:04:08.393Z,99857.49
2018-09-03T16:06:36.036Z,99857.55
2018-09-03T16:09:07.040Z,99857.07
2018-09-03T16:11:34.802Z,99852.06
2018-09-03T16:14:02.448Z,99850.00
2018-09-03T16:16:30.173Z,99721.86
2018-09-03T16:18:57.875Z,99841.26
2018-09-03T16:21:25.559Z,99846.67
2018-09-03T16:23:53.452Z,99845.86
2018-09-03T16:26:21.212Z,99844.11
2018-09-03T16:28:48.942Z,99836.73
2018-09-03T16:31:16.653Z,99834.11
2018-09-03T16:33:44.382Z,99829.39
2018-09-03T16:36:12.074Z,99829.73
2018-09-03T16:38:39.979Z,99828.38
2018-09-03T16:41:07.914Z,99828.17
2018-09-03T16:43:35.862Z,99824.52
2018-09-03T16:46:03.710Z,99821.80
2018-09-03T16:48:31.448Z,99819.55
2018-09-03T16:50:59.284Z,99817.21
2018-09-03T16:53:27.233Z,99816.47
2018-09-03T16:55:54.979Z,99820.27
2018-09-03T16:58:22.729Z,99813.19
2018-09-03T17:00:50.512Z,99811.63
2018-09-03T17:03:18.386Z,99811.56
2018-09-03T17:05:46.110Z,99808.39
2018-09-03T17:08:14.082Z,99817.13
2018-09-03T17:10:41.753Z,99815.73
2018-09-03T17:13:09.408Z,99806.23
2018-09-03T17:15:37.129Z,99811.80
2018-09-03T17:18:04.835Z,99805.41
2018-09-03T17:20:32.640Z,99808.84
2018-09-03T17:23:00.371Z,99804.16
2018-09-03T17:25:28.544Z,99799.89
2018-09-03T17:27:56.901Z,99805.41
2018-09-03T17:30:24.676Z,99811.70
2018-09-03T17:32:52.592Z,99808.13
2018-09-03T17:35:20.789Z,99802.06
2018-09-03T17:37:49.102Z,99811.45
2018-09-03T17:40:17.398Z,99819.45
2018-09-03T17:42:45.208Z,99820.07
2018-09-03T17:45:12.964Z,99818.21
2018-09-03T17:47:40.709Z,99825.72
2018-09-03T17:50:08.810Z,99824.88
2018-09-03T17:52:37.139Z,99818.27
2018-09-03T17:55:05.110Z,99832.14
2018-09-03T17:57:32.816Z,99829.03
2018-09-03T18:00:03.161Z,99828.17
2018-09-03T18:02:30.890Z,99828.34
2018-09-03T18:04:58.733Z,99829.02
2018-09-03T18:07:28.300Z,99837.27
2018-09-03T18:09:57.125Z,99844.31
2018-09-03T18:12:24.965Z,99837.17
2018-09-03T18:14:52.624Z,99831.98
2018-09-03T18:17:20.298Z,99837.80
2018-09-03T18:19:48.139Z,99836.88
2018-09-03T18:22:16.592Z,99828.86
2018-09-03T18:24:44.414Z,99826.28
2018-09-03T18:27:12.117Z,99832.04
2018-09-03T18:29:39.842Z,99830.47
2018-09-03T18:32:07.809Z,99823.42
2018-09-03T18:34:36.171Z,99823.48
2018-09-03T18:37:03.980Z,99826.63
2018-09-03T18:39:31.701Z,99823.72
2018-09-03T18:41:59.454Z,99825.42
2018-09-03T18:44:27.961Z,99820.17
2018-09-03T18:46:56.326Z,99815.52
2018-09-03T18:49:24.241Z,99820.81
2018-09-03T18:51:51.985Z,99821.59
2018-09-03T18:54:19.677Z,99817.41
2018-09-03T18:56:47.518Z,99817.16
2018-09-03T18:59:15.456Z,99812.14
2018-09-03T19:01:43.167Z,99811.84
2018-09-03T19:04:10.821Z,99814.01
2018-09-03T19:06:38.609Z,99820.04
2018-09-03T19:09:07.919Z,99824.81
2018-09-03T19:11:35.840Z,99828.25
2018-09-03T19:14:03.636Z,99827.79
2018-09-03T19:16:31.336Z,99826.23
2018-09-03T19:18:59.091Z,99829.22
2018-09-03T19:21:26.792Z,99832.39
2018-09-03T19:23:54.394Z,99825.26
2018-09-03T19:26:22.026Z,99835.89
2018-09-03T19:28:49.714Z,99839.72
2018-09-03T19:31:17.461Z,99841.87
2018-09-03T19:33:45.244Z,99838.75
2018-09-03T19:36:13.059Z,99837.09
2018-09-03T19:38:40.773Z,99837.96
2018-09-03T19:41:08.504Z,99831.22
2018-09-03T19:43:36.181Z,99836.06
2018-09-03T19:46:03.883Z,99829.38
2018-09-03T19:48:31.689Z,99826.64
2018-09-03T19:50:59.431Z,99826.82
2018-09-03T19:53:27.081Z,99823.15
2018-09-03T19:55:54.771Z,99830.77
2018-09-03T19:58:22.538Z,99823.84
2018-09-03T20:05:44.784Z,99819.26
2018-09-03T20:08:12.513Z,99817.09
2018-09-03T20:10:40.301Z,99814.90
2018-09-03T20:13:07.998Z,99818.25
2018-09-03T20:15:35.684Z,99814.61
2018-09-03T20:18:03.362Z,99811.63
2018-09-03T20:20:31.113Z,99814.11
2018-09-03T20:22:58.821Z,99803.69
2018-09-03T20:25:26.611Z,99809.92
2018-09-03T20:27:54.333Z,99807.76
2018-09-03T20:30:22.122Z,99804.19
2018-09-03T20:32:49.814Z,99806.47
2018-09-03T20:35:17.428Z,99795.75
2018-09-03T20:37:45.100Z,99795.28
2018-09-03T20:40:12.841Z,99796.54
2018-09-03T20:42:40.525Z,99793.97
2018-09-03T20:45:08.227Z,99795.52
2018-09-03T20:47:35.952Z,99792.56
2018-09-03T20:50:03.837Z,99788.59
2018-09-03T20:52:31.519Z,99788.01
2018-09-03T20:54:59.145Z,99789.02
2018-09-03T20:57:26.785Z,99794.67
2018-09-03T20:59:54.399Z,99787.66
2018-09-03T21:02:22.070Z,99794.56
2018-09-03T21:04:49.773Z,99791.75
2018-09-03T21:07:17.507Z,99793.14
2018-09-03T21:09:45.164Z,99785.88
2018-09-03T21:12:12.828Z,99787.30
2018-09-03T21:14:41.330Z,99796.50
2018-09-03T21:17:08.906Z,99795.75
2018-09-03T21:19:36.560Z,99797.82
2018-09-03T21:22:04.272Z,99792.59
2018-09-03T21:24:31.954Z,99790.50
2018-09-03T21:26:59.630Z,99789.16
2018-09-03T21:29:27.281Z,99790.71
2018-09-03T21:31:54.922Z,99789.12
2018-09-03T21:34:22.558Z,99790.00
2018-09-03T21:36:50.227Z,99788.16
2018-09-03T21:39:17.920Z,99796.27
2018-09-03T21:41:45.614Z,99794.00
2018-09-03T21:44:13.274Z,99791.27
2018-09-03T21:46:40.997Z,99790.60
2018-09-03T21:49:09.067Z,99794.92
2018-09-03T21:51:36.709Z,99791.05
2018-09-03T21:54:04.395Z,99792.16
2018-09-03T21:56:32.056Z,99790.32
2018-09-03T21:58:59.742Z,99785.52
2018-09-03T22:01:27.614Z,99791.15
2018-09-03T22:03:55.316Z,99794.33
2018-09-03T22:06:22.935Z,99788.48
2018-09-03T22:08:50.650Z,99787.17
2018-09-03T22:11:18.283Z,99789.93
2018-09-03T22:13:45.934Z,99789.33
2018-09-03T22:16:13.562Z,99782.95
2018-09-03T22:18:41.362Z,99784.68
2018-09-03T22:21:08.985Z,99783.88
2018-09-03T22:23:37.276Z,99782.02
2018-09-03T22:26:04.941Z,99785.67
2018-09-03T22:28:32.999Z,99787.11
2018-09-03T22:31:00.672Z,99782.35
2018-09-03T22:33:28.296Z,99787.28
2018-09-03T22:35:56.098Z,99790.16
2018-09-03T22:38:23.746Z,99787.27
2018-09-03T22:40:51.342Z,99800.28
2018-09-03T22:43:19.039Z,99785.91
2018-09-03T22:45:46.718Z,99792.73
2018-09-03T22:48:14.711Z,99785.08
2018-09-03T22:50:42.431Z,99799.05
2018-09-03T22:53:10.039Z,99791.41
2018-09-03T22:55:37.675Z,99786.45
2018-09-03T22:58:05.287Z,99786.78
2018-09-03T23:00:32.912Z,99786.97
2018-09-03T23:03:00.579Z,99785.84
2018-09-03T23:05:28.211Z,99783.17
2018-09-03T23:07:55.795Z,99783.34
2018-09-03T23:10:23.460Z,99784.18
2018-09-03T23:12:51.110Z,99776.91
2018-09-03T23:15:18.779Z,99776.98
2018-09-03T23:17:46.441Z,99776.69
2018-09-03T23:20:14.098Z,99777.05
2018-09-03T23:22:41.808Z,99773.89
2018-09-03T23:25:09.502Z,99768.11
2018-09-03T23:27:37.165Z,99769.64
2018-09-03T23:30:04.940Z,99765.48
2018-09-03T23:32:32.665Z,99757.02
2018-09-03T23:35:00.324Z,99763.02
2018-09-03T23:37:28.116Z,99763.55
2018-09-03T23:39:55.777Z,99762.06
2018-09-03T23:42:23.428Z,99764.72
2018-09-03T23:44:51.150Z,99756.22
2018-09-03T23:47:18.794Z,99747.14
2018-09-03T23:49:46.545Z,99748.30
2018-09-03T23:52:14.239Z,99747.83
2018-09-03T23:54:41.969Z,99750.33
2018-09-03T23:57:09.650Z,99746.87
2018-09-03T23:59:37.483Z,99754.67
